Time;durP1;ratioP1;P1;durP2;ratioP2;P2;SDS_P1;SDS_P2;PMS_P1;PMS_P2;Temp;Humidity;BMP_temperature;BMP_pressure;BME280_temperature;BME280_humidity;BME280_pressure;Samples;Min_cycle;Max_cycle;Signal;HPM_P1;HPM_P2
2022/02/22 00:03:17;;;;;;;10.50;3.90;;;;;;;5.09;53.83;97586.12;231250;1229;139939;-63
2022/02/22 00:08:20;;;;;;;9.70;3.20;;;;;;;5.21;53.56;97583.63;231199;1229;138982;-62
2022/02/22 00:13:27;;;;;;;8.30;3.50;;;;;;;5.29;53.18;97589.75;231261;1229;139236;-61
2022/02/22 00:18:30;;;;;;;9.50;3.50;;;;;;;5.35;53.17;97595.38;231413;1229;139125;-65
2022/02/22 00:23:32;;;;;;;11.10;3.60;;;;;;;5.31;53.25;97596.17;231280;1229;138498;-63
2022/02/22 00:28:36;;;;;;;10.80;3.90;;;;;;;5.20;53.27;97609.68;231199;1228;138852;-60
2022/02/22 00:33:38;;;;;;;10.10;3.70;;;;;;;5.09;53.54;97616.55;231200;1229;138500;-62
2022/02/22 00:38:42;;;;;;;12.00;4.00;;;;;;;5.02;53.77;97619.77;231221;1227;138840;-63
2022/02/22 00:43:45;;;;;;;10.60;3.50;;;;;;;4.93;53.71;97623.29;231237;1228;139667;-64
2022/02/22 00:48:48;;;;;;;12.00;4.40;;;;;;;4.84;54.21;97620.02;231360;1229;139439;-64
2022/02/22 00:53:51;;;;;;;10.20;4.10;;;;;;;4.74;54.26;97619.02;231271;1228;139265;-63
2022/02/22 00:58:54;;;;;;;8.70;3.80;;;;;;;4.69;54.51;97621.28;231236;1229;139495;-66
2022/02/22 01:03:57;;;;;;;9.30;4.30;;;;;;;4.64;54.68;97624.40;231257;1229;141118;-63
2022/02/22 01:09:03;;;;;;;8.90;3.80;;;;;;;4.62;54.82;97625.94;231321;1228;139134;-61
2022/02/22 01:14:06;;;;;;;8.10;3.60;;;;;;;4.60;55.14;97630.46;231280;1228;139706;-64
2022/02/22 01:19:09;;;;;;;12.20;4.00;;;;;;;4.59;55.29;97637.75;231233;1229;139412;-63
2022/02/22 01:24:12;;;;;;;10.40;3.80;;;;;;;4.57;55.71;97647.85;231336;1228;138695;-63
2022/02/22 01:29:15;;;;;;;10.40;4.00;;;;;;;4.58;56.16;97656.72;231248;1229;139227;-63
2022/02/22 01:34:18;;;;;;;10.60;4.40;;;;;;;4.60;56.07;97666.60;231202;1228;138853;-66
2022/02/22 01:39:21;;;;;;;14.60;4.20;;;;;;;4.63;56.25;97666.62;231271;1228;138710;-65
2022/02/22 01:44:24;;;;;;;12.30;4.00;;;;;;;4.67;56.34;97667.64;231239;1228;138796;-62
2022/02/22 01:49:27;;;;;;;14.10;4.10;;;;;;;4.72;56.30;97673.12;231199;1229;139011;-66
2022/02/22 01:54:31;;;;;;;12.70;4.10;;;;;;;4.77;56.37;97671.23;231355;1229;139198;-63
2022/02/22 01:59:34;;;;;;;11.60;3.50;;;;;;;4.83;56.34;97679.48;231214;1229;138724;-64
2022/02/22 02:04:38;;;;;;;14.20;4.00;;;;;;;4.91;56.64;97683.52;231440;1228;139162;-58
2022/02/22 02:09:51;;;;;;;14.10;3.90;;;;;;;5.02;56.70;97690.45;231229;1228;140657;-62
2022/02/22 02:14:54;;;;;;;6.40;3.00;;;;;;;5.13;56.61;97688.19;231194;1229;138609;-61
2022/02/22 02:19:57;;;;;;;256.30;157.10;;;;;;;5.30;56.07;97691.15;231254;1229;138411;-59
2022/02/22 02:25:00;;;;;;;27.40;13.20;;;;;;;5.54;56.37;97697.92;231282;1229;139397;-61
2022/02/22 02:30:05;;;;;;;9.30;5.50;;;;;;;5.69;55.96;97707.46;231442;1228;139304;-63
2022/02/22 02:35:09;;;;;;;11.80;4.90;;;;;;;5.75;55.45;97719.61;231274;1229;138796;-62
2022/02/22 02:40:12;;;;;;;9.50;4.10;;;;;;;5.82;55.27;97727.98;231275;1229;138863;-59
2022/02/22 02:45:15;;;;;;;9.70;4.80;;;;;;;5.87;55.14;97733.83;231263;1229;138273;-63
2022/02/22 02:50:18;;;;;;;10.40;4.30;;;;;;;5.93;55.18;97738.74;231330;1229;138971;-61
2022/02/22 02:55:21;;;;;;;11.50;4.30;;;;;;;5.95;55.08;97743.92;231281;1229;139123;-63
2022/02/22 03:00:24;;;;;;;8.90;3.70;;;;;;;5.95;55.01;97745.86;231419;1229;139218;-64
2022/02/22 03:05:27;;;;;;;7.20;3.40;;;;;;;5.94;55.10;97754.34;231316;1229;138943;-63
2022/02/22 03:10:30;;;;;;;9.20;3.30;;;;;;;5.98;55.42;97753.39;231315;1229;138926;-62
2022/02/22 03:15:33;;;;;;;7.50;2.50;;;;;;;6.05;55.28;97759.28;231282;1229;138778;-62
2022/02/22 03:20:36;;;;;;;7.80;2.60;;;;;;;6.09;55.50;97766.58;231354;1228;138935;-62
2022/02/22 03:25:39;;;;;;;7.40;2.20;;;;;;;6.16;55.60;97771.94;231310;1229;139388;-63
2022/02/22 03:30:42;;;;;;;5.90;2.20;;;;;;;6.22;55.39;97778.96;231401;1229;138956;-63
2022/02/22 03:35:45;;;;;;;5.30;1.80;;;;;;;6.26;55.41;97791.23;231308;1229;139321;-63
2022/02/22 03:40:48;;;;;;;5.10;1.80;;;;;;;6.26;55.46;97795.05;231288;1229;140216;-60
2022/02/22 03:45:51;;;;;;;5.40;2.00;;;;;;;6.34;55.54;97807.40;231265;1228;138599;-61
2022/02/22 03:50:54;;;;;;;4.30;1.70;;;;;;;6.38;55.55;97821.57;231324;1228;138522;-62
2022/02/22 03:55:57;;;;;;;4.50;2.00;;;;;;;6.38;55.78;97830.23;231278;1229;139150;-62
2022/02/22 04:01:00;;;;;;;10.00;2.20;;;;;;;6.34;55.83;97838.80;231518;1229;138935;-62
2022/02/22 04:06:03;;;;;;;6.10;2.00;;;;;;;6.32;56.28;97861.13;231433;1229;139623;-59
2022/02/22 04:11:07;;;;;;;4.40;1.40;;;;;;;6.25;56.00;97872.44;231353;1228;138661;-59
2022/02/22 04:16:10;;;;;;;2.70;1.30;;;;;;;6.16;56.37;97893.11;231312;1229;138837;-62
2022/02/22 04:21:12;;;;;;;2.20;1.20;;;;;;;6.07;56.53;97905.33;231303;1229;138769;-63
2022/02/22 04:26:15;;;;;;;4.70;1.10;;;;;;;5.91;56.81;97916.28;231306;1229;138936;-63
2022/02/22 04:31:18;;;;;;;3.30;1.10;;;;;;;5.83;56.99;97929.96;231299;1229;139475;-61
2022/02/22 04:36:21;;;;;;;1.40;0.90;;;;;;;5.77;57.13;97938.23;231305;1229;139841;-62
2022/02/22 04:41:24;;;;;;;1.70;1.20;;;;;;;5.74;57.28;97951.08;231064;1229;138583;-60
2022/02/22 04:46:29;;;;;;;1.50;1.40;;;;;;;5.66;57.43;97968.64;231269;1229;139003;-59
2022/02/22 04:51:32;;;;;;;1.90;1.40;;;;;;;5.59;57.37;97981.36;231358;1225;138498;-60
2022/02/22 04:56:35;;;;;;;3.60;1.70;;;;;;;5.51;57.45;97988.36;231277;1228;138520;-60
2022/02/22 05:01:38;;;;;;;2.50;1.90;;;;;;;5.44;57.58;98000.52;231348;1230;138826;-62
2022/02/22 05:06:41;;;;;;;5.10;1.80;;;;;;;5.44;57.93;98015.30;231507;1229;139059;-61
2022/02/22 05:11:44;;;;;;;4.10;1.60;;;;;;;5.45;58.01;98022.79;231294;1230;139528;-60
2022/02/22 05:16:47;;;;;;;3.20;1.80;;;;;;;5.48;58.06;98039.35;231101;1228;138685;-58
2022/02/22 05:21:50;;;;;;;2.30;1.60;;;;;;;5.53;58.01;98051.91;231114;1228;140396;-59
2022/02/22 05:26:53;;;;;;;2.20;1.40;;;;;;;5.43;57.69;98065.88;231268;1230;140284;-60
2022/02/22 05:31:56;;;;;;;3.00;1.50;;;;;;;5.37;57.81;98073.05;231253;1228;138947;-59
2022/02/22 05:36:59;;;;;;;3.00;1.60;;;;;;;5.30;57.78;98078.41;231253;1229;138373;-61
2022/02/22 05:42:03;;;;;;;3.60;1.80;;;;;;;5.22;57.71;98085.71;231461;1226;139105;-58
2022/02/22 05:47:06;;;;;;;3.50;1.50;;;;;;;5.15;57.77;98092.58;231281;1228;139448;-60
2022/02/22 05:52:10;;;;;;;4.70;1.80;;;;;;;5.08;57.77;98103.20;231240;1229;138891;-59
2022/02/22 05:57:13;;;;;;;125.70;78.60;;;;;;;5.05;58.24;98120.02;231283;1229;139405;-59
2022/02/22 06:02:16;;;;;;;8.90;4.70;;;;;;;5.18;58.36;98122.65;231228;1228;138974;-58
2022/02/22 06:07:20;;;;;;;4.70;2.40;;;;;;;5.15;58.04;98132.64;231334;1228;138604;-59
2022/02/22 06:12:23;;;;;;;5.60;2.30;;;;;;;5.07;58.13;98141.88;231439;1228;139129;-59
2022/02/22 06:17:26;;;;;;;4.10;2.40;;;;;;;5.00;58.02;98163.36;231251;1228;138686;-57
2022/02/22 06:22:29;;;;;;;8.20;4.80;;;;;;;5.07;58.87;98159.48;231165;1229;138494;-58
2022/02/22 06:27:32;;;;;;;6.50;3.00;;;;;;;5.18;58.55;98175.71;231243;1230;138732;-59
2022/02/22 06:32:35;;;;;;;5.80;2.40;;;;;;;5.18;58.27;98184.21;231287;1229;139828;-58
2022/02/22 06:37:38;;;;;;;17.00;10.90;;;;;;;5.05;58.17;98198.06;231263;1228;138684;-58
2022/02/22 06:42:41;;;;;;;7.50;3.50;;;;;;;5.03;58.63;98201.69;231368;1229;138718;-59
2022/02/22 06:47:44;;;;;;;7.50;2.80;;;;;;;5.10;58.64;98212.05;231253;1230;140260;-60
2022/02/22 06:52:47;;;;;;;4.60;2.50;;;;;;;5.09;58.69;98222.15;231261;1229;139499;-60
2022/02/22 06:57:54;;;;;;;7.00;2.60;;;;;;;5.06;58.88;98223.87;231237;1229;138307;-62
2022/02/22 07:02:57;;;;;;;7.20;2.70;;;;;;;5.10;58.84;98230.35;231265;1229;138679;-61
2022/02/22 07:08:01;;;;;;;5.00;2.70;;;;;;;5.10;58.90;98234.38;231157;1229;138965;-63
2022/02/22 07:13:04;;;;;;;160.10;104.40;;;;;;;5.12;59.02;98245.55;231290;1230;138670;-60
2022/02/22 07:18:13;;;;;;;7.40;3.60;;;;;;;5.23;59.42;98241.76;231399;1230;139670;-61
2022/02/22 07:23:17;;;;;;;9.80;2.80;;;;;;;5.39;59.29;98237.23;231315;1229;138997;-61
2022/02/22 07:28:20;;;;;;;10.70;3.40;;;;;;;5.52;59.27;98249.04;231341;1230;139915;-63
2022/02/22 07:33:24;;;;;;;10.30;3.00;;;;;;;5.60;59.46;98256.70;231326;1229;139073;-63
2022/02/22 07:38:27;;;;;;;6.80;3.00;;;;;;;5.73;59.26;98268.45;231218;1230;139379;-62
2022/02/22 07:43:30;;;;;;;24.20;16.60;;;;;;;5.84;59.17;98269.09;231337;1230;139306;-62
2022/02/22 07:48:32;;;;;;;13.00;4.70;;;;;;;5.99;59.45;98277.94;231417;1229;139161;-60
2022/02/22 07:53:35;;;;;;;12.10;4.50;;;;;;;6.09;59.20;98291.84;231312;1230;139170;-61
2022/02/22 07:58:39;;;;;;;8.30;3.90;;;;;;;6.21;59.10;98308.79;231291;1230;138889;-61
2022/02/22 08:03:44;;;;;;;7.20;3.00;;;;;;;6.27;58.85;98316.36;231310;1230;138967;-59
2022/02/22 08:08:47;;;;;;;6.90;3.10;;;;;;;6.23;58.76;98320.84;231252;1229;138758;-59
2022/02/22 08:13:51;;;;;;;8.40;3.60;;;;;;;6.17;58.67;98319.23;231308;1230;139222;-60
2022/02/22 08:18:56;;;;;;;8.70;3.60;;;;;;;6.23;58.89;98323.13;231313;1229;139147;-59
2022/02/22 08:23:59;;;;;;;10.70;3.60;;;;;;;6.30;58.49;98328.71;231423;1230;138860;-58
2022/02/22 08:29:12;;;;;;;7.40;3.50;;;;;;;6.34;58.51;98333.96;231335;1230;139300;-58
2022/02/22 08:34:15;;;;;;;9.10;3.60;;;;;;;6.37;58.60;98344.89;231302;1229;139138;-57
2022/02/22 08:39:18;;;;;;;11.20;3.20;;;;;;;6.40;58.81;98342.42;231266;1230;139162;-59
2022/02/22 08:44:21;;;;;;;10.90;3.80;;;;;;;6.39;58.57;98349.16;231311;1229;139316;-58
2022/02/22 08:49:25;;;;;;;6.60;3.70;;;;;;;6.35;58.86;98357.34;231274;1230;139137;-58
2022/02/22 08:54:28;;;;;;;10.00;3.50;;;;;;;6.39;58.83;98360.77;231351;1229;138485;-56
2022/02/22 08:59:31;;;;;;;12.10;3.20;;;;;;;6.44;58.72;98363.90;231300;1230;139095;-61
2022/02/22 09:04:34;;;;;;;8.50;3.10;;;;;;;6.37;58.39;98369.35;231303;1230;138626;-63
2022/02/22 09:09:38;;;;;;;11.60;4.50;;;;;;;6.46;58.87;98370.29;231225;1229;138074;-64
2022/02/22 09:14:41;;;;;;;6.80;3.00;;;;;;;6.65;58.93;98377.13;231298;1229;139057;-61
2022/02/22 09:19:44;;;;;;;6.60;2.60;;;;;;;6.76;58.48;98378.43;231278;1229;138668;-62
2022/02/22 09:24:47;;;;;;;5.90;2.50;;;;;;;6.82;58.17;98386.92;231409;1228;138891;-64
2022/02/22 09:29:50;;;;;;;7.80;2.50;;;;;;;6.89;58.27;98388.27;231287;1229;139824;-62
2022/02/22 09:34:53;;;;;;;5.50;2.50;;;;;;;6.97;58.04;98383.95;231278;1230;138851;-59
2022/02/22 09:39:57;;;;;;;9.30;2.70;;;;;;;7.09;58.09;98384.84;231265;1230;138795;-58
2022/02/22 09:45:00;;;;;;;5.80;2.30;;;;;;;7.19;57.84;98385.99;231236;1229;138789;-56
2022/02/22 09:50:05;;;;;;;132.00;78.10;;;;;;;7.24;57.56;98392.80;231264;1230;139469;-60
2022/02/22 09:55:10;;;;;;;10.20;3.60;;;;;;;7.26;57.29;98393.20;231273;1229;139507;-57
2022/02/22 10:00:31;;;;;;;9.80;4.70;;;;;;;7.24;57.11;98410.08;231323;1228;139175;-58
2022/02/22 10:05:39;;;;;;;4.80;2.00;;;;;;;7.18;57.01;98410.73;231321;1228;139085;-58
2022/02/22 10:10:44;;;;;;;4.00;1.90;;;;;;;7.09;57.09;98417.65;231355;1228;138919;-57
2022/02/22 10:15:50;;;;;;;6.20;1.50;;;;;;;7.04;57.42;98412.82;231257;1229;140225;-58
2022/02/22 10:20:57;;;;;;;4.00;1.50;;;;;;;7.08;57.41;98424.77;231250;1229;139958;-60
2022/02/22 10:26:00;;;;;;;5.90;1.60;;;;;;;7.16;57.11;98429.60;231541;1229;138398;-57
2022/02/22 10:31:09;;;;;;;6.60;1.70;;;;;;;7.17;57.02;98432.33;231262;1228;142123;-59
2022/02/22 10:36:19;;;;;;;191.90;93.80;;;;;;;7.21;57.54;98435.95;231080;1228;138723;-61
2022/02/22 10:41:23;;;;;;;7.60;3.20;;;;;;;7.46;57.88;98441.75;231141;1228;138931;-60
2022/02/22 10:46:29;;;;;;;83.70;51.10;;;;;;;7.76;57.58;98448.61;231238;1230;138635;-58
2022/02/22 10:51:40;;;;;;;6.30;2.60;;;;;;;7.89;57.11;98444.30;231101;1230;139251;-60
2022/02/22 10:56:44;;;;;;;6.80;2.30;;;;;;;7.90;57.06;98448.15;231280;1230;139212;-60
2022/02/22 11:01:54;;;;;;;5.40;2.20;;;;;;;7.89;56.93;98447.70;231231;1230;138718;-61
2022/02/22 11:07:02;;;;;;;5.40;2.00;;;;;;;7.81;56.50;98447.77;231394;1229;139101;-60
2022/02/22 11:12:25;;;;;;;5.20;2.20;;;;;;;7.71;56.42;98455.96;231427;1228;139027;-59
2022/02/22 11:17:29;;;;;;;5.90;2.10;;;;;;;7.64;56.45;98466.27;231271;1230;138973;-58
2022/02/22 11:22:32;;;;;;;4.70;1.60;;;;;;;7.57;56.34;98465.99;231244;1228;138865;-61
2022/02/22 11:27:38;;;;;;;4.30;1.60;;;;;;;7.60;56.59;98465.27;231255;1229;138478;-61
2022/02/22 11:32:56;;;;;;;5.80;1.60;;;;;;;7.75;56.48;98467.20;231197;1229;138675;-61
2022/02/22 11:38:08;;;;;;;4.70;2.00;;;;;;;7.90;56.16;98465.81;231241;1229;138498;-62
2022/02/22 11:43:16;;;;;;;6.30;1.60;;;;;;;7.97;55.68;98465.88;231253;1228;140331;-61
2022/02/22 11:48:23;;;;;;;5.20;1.90;;;;;;;8.03;55.59;98475.78;231351;1228;139518;-61
2022/02/22 11:53:26;;;;;;;;;;;;;;;8.04;55.43;98481.88;231098;1230;138989;-60
2022/02/22 11:58:35;;;;;;;4.60;2.40;;;;;;;8.02;55.57;98488.92;231253;1228;125261;-60
2022/02/22 12:03:41;;;;;;;4.30;2.40;;;;;;;8.03;55.26;98493.81;231206;1229;139534;-60
2022/02/22 12:08:50;;;;;;;7.00;2.70;;;;;;;8.00;55.24;98503.14;231223;1227;139239;-62
2022/02/22 12:13:57;;;;;;;6.70;2.40;;;;;;;8.08;55.95;98514.17;231237;1228;138779;-61
2022/02/22 12:19:05;;;;;;;4.40;1.90;;;;;;;8.39;56.30;98512.82;231158;1229;139604;-62
2022/02/22 12:24:12;;;;;;;5.40;2.40;;;;;;;8.60;55.97;98510.45;231308;1228;138841;-63
2022/02/22 12:29:17;;;;;;;6.60;3.00;;;;;;;8.74;56.14;98515.08;231276;1229;138396;-62
2022/02/22 12:34:22;;;;;;;6.00;3.00;;;;;;;8.86;55.93;98511.87;231224;1229;138851;-63
2022/02/22 12:39:27;;;;;;;6.40;2.80;;;;;;;8.99;55.75;98511.17;231258;1228;138664;-62
2022/02/22 12:44:30;;;;;;;6.00;2.70;;;;;;;9.02;56.06;98507.46;231170;1229;138658;-61
2022/02/22 12:49:34;;;;;;;7.60;3.10;;;;;;;9.05;55.50;98513.29;231348;1228;138426;-62
2022/02/22 12:54:38;;;;;;;7.60;2.80;;;;;;;9.01;55.38;98519.02;231324;1229;138427;-61
2022/02/22 12:59:41;;;;;;;6.10;2.60;;;;;;;8.86;55.26;98528.65;231261;1228;137987;-61
2022/02/22 13:04:45;;;;;;;4.00;1.80;;;;;;;8.68;55.32;98561.98;231218;1228;139168;-62
2022/02/22 13:09:49;;;;;;;3.80;2.10;;;;;;;8.22;55.79;98574.67;231231;1228;138819;-60
2022/02/22 13:14:54;;;;;;;3.20;2.00;;;;;;;7.72;56.61;98573.15;231261;1228;138992;-62
2022/02/22 13:19:59;;;;;;;;;;;;;;;7.45;57.53;98578.64;231235;1229;139078;-62
2022/02/22 13:25:03;;;;;;;3.00;2.10;;;;;;;7.27;58.15;98582.24;231343;1228;124934;-61
2022/02/22 13:30:09;;;;;;;6.10;2.40;;;;;;;7.14;58.66;98585.44;231424;1228;140725;-63
2022/02/22 13:35:23;;;;;;;5.30;2.10;;;;;;;7.05;58.62;98596.70;231226;1229;138646;-61
2022/02/22 13:40:47;;;;;;;6.50;2.20;;;;;;;7.06;58.87;98609.32;231254;1229;139207;-60
2022/02/22 13:45:59;;;;;;;12.40;3.20;;;;;;;7.07;58.36;98621.98;231255;1228;139445;-62
2022/02/22 13:51:14;;;;;;;9.40;2.70;;;;;;;7.01;58.47;98634.66;231206;1228;139007;-61
2022/02/22 13:56:24;;;;;;;15.00;3.70;;;;;;;6.92;58.23;98642.03;231282;1228;139425;-59
2022/02/22 14:01:27;;;;;;;13.00;3.40;;;;;;;6.83;58.22;98648.85;231287;1229;138482;-63
2022/02/22 14:06:30;;;;;;;10.80;3.40;;;;;;;6.76;58.65;98648.86;231440;1228;140145;-63
2022/02/22 14:11:46;;;;;;;10.40;3.80;;;;;;;6.72;58.35;98659.65;231265;1229;139107;-62
2022/02/22 14:16:50;;;;;;;12.30;3.40;;;;;;;6.69;58.11;98669.20;231252;1228;138919;-61
2022/02/22 14:21:54;;;;;;;15.10;3.60;;;;;;;6.71;57.92;98680.88;231218;1228;138662;-64
2022/02/22 14:26:59;;;;;;;15.60;3.50;;;;;;;6.77;57.90;98684.11;231217;1229;139111;-63
2022/02/22 14:32:02;;;;;;;14.80;3.90;;;;;;;7.15;61.30;98684.50;231314;1229;139283;-63
2022/02/22 14:37:05;;;;;;;11.60;3.50;;;;;;;8.19;60.41;98683.65;231297;1228;139023;-62
2022/02/22 14:42:08;;;;;;;24.10;6.60;;;;;;;8.02;57.04;98692.06;231265;1228;139915;-65
2022/02/22 14:47:17;;;;;;;13.50;4.50;;;;;;;7.80;56.36;98702.67;231138;1230;139227;-65
2022/02/22 14:52:20;;;;;;;11.30;3.20;;;;;;;7.55;55.69;98708.14;231142;1229;139848;-62
2022/02/22 14:57:42;;;;;;;106.60;57.90;;;;;;;7.37;55.26;98717.56;231179;1228;138805;-61
2022/02/22 15:02:46;;;;;;;14.60;4.30;;;;;;;7.34;55.19;98720.91;231160;1228;139714;-62
2022/02/22 15:07:49;;;;;;;16.80;3.80;;;;;;;7.33;54.58;98727.66;231162;1229;139180;-65
2022/02/22 15:12:52;;;;;;;14.60;3.30;;;;;;;7.24;54.02;98726.21;231273;1229;138642;-64
2022/02/22 15:17:55;;;;;;;10.50;3.30;;;;;;;7.11;53.27;98728.14;231138;1229;138455;-64
2022/02/22 15:23:00;;;;;;;8.80;3.00;;;;;;;7.02;53.17;98737.24;231136;1228;138430;-65
2022/02/22 15:28:04;;;;;;;15.10;3.40;;;;;;;6.93;52.96;98740.38;230977;1228;138728;-67
2022/02/22 15:33:13;;;;;;;13.90;3.60;;;;;;;6.88;52.82;98740.98;231210;1229;139281;-63
2022/02/22 15:38:16;;;;;;;12.50;3.60;;;;;;;6.83;52.49;98749.89;231135;1229;139356;-66
2022/02/22 15:43:21;;;;;;;14.00;3.60;;;;;;;6.78;52.13;98748.75;231157;1229;139673;-63
2022/02/22 15:48:24;;;;;;;33.80;18.60;;;;;;;6.75;52.10;98754.39;231303;1228;138441;-64
2022/02/22 15:53:28;;;;;;;16.70;6.50;;;;;;;6.87;52.39;98758.48;231152;1228;139495;-67
2022/02/22 15:58:31;;;;;;;18.00;3.90;;;;;;;6.95;52.11;98762.65;231162;1228;138797;-66
2022/02/22 16:03:35;;;;;;;18.60;3.90;;;;;;;6.94;51.83;98768.00;231159;1228;138632;-66
2022/02/22 16:08:38;;;;;;;14.50;3.80;;;;;;;6.93;51.79;98786.58;231191;1228;138701;-64
2022/02/22 16:13:48;;;;;;;10.80;3.40;;;;;;;6.91;51.62;98791.47;231189;1228;138913;-65
2022/02/22 16:18:51;;;;;;;17.40;3.40;;;;;;;6.92;51.28;98796.71;231309;1229;138583;-62
2022/02/22 16:23:54;;;;;;;56.30;31.00;;;;;;;6.88;51.01;98804.13;231210;1229;139159;-64
2022/02/22 16:28:57;;;;;;;17.10;4.90;;;;;;;6.80;50.71;98811.41;231176;1228;139864;-64
2022/02/22 16:34:00;;;;;;;18.70;4.00;;;;;;;6.73;50.77;98813.52;231188;1229;138822;-64
2022/02/22 16:39:03;;;;;;;12.50;3.70;;;;;;;6.72;50.77;98816.23;231200;1228;138875;-64
2022/02/22 16:44:06;;;;;;;19.80;7.10;;;;;;;6.71;51.08;98828.80;231205;1229;138951;-63
2022/02/22 16:49:10;;;;;;;23.60;8.40;;;;;;;6.68;52.61;98841.27;231070;1228;139414;-62
2022/02/22 16:54:13;;;;;;;23.70;7.90;;;;;;;6.60;53.13;98847.85;231319;1229;138767;-62
2022/02/22 16:59:17;;;;;;;21.10;7.10;;;;;;;6.54;53.47;98847.58;231152;1229;139259;-62
2022/02/22 17:04:22;;;;;;;20.10;7.20;;;;;;;6.52;53.83;98842.58;231225;1229;138954;-60
2022/02/22 17:09:26;;;;;;;17.90;7.10;;;;;;;6.50;53.73;98840.94;231200;1229;140645;-62
2022/02/22 17:14:30;;;;;;;16.40;6.90;;;;;;;6.48;53.77;98850.55;231184;1230;138838;-62
2022/02/22 17:19:33;;;;;;;24.10;7.20;;;;;;;6.44;53.81;98856.05;231308;1228;138607;-62
2022/02/22 17:24:36;;;;;;;264.80;164.70;;;;;;;6.44;54.03;98860.44;231201;1229;139226;-63
2022/02/22 17:29:40;;;;;;;31.80;15.00;;;;;;;6.58;54.33;98868.54;231200;1229;138871;-61
2022/02/22 17:34:44;;;;;;;29.30;9.50;;;;;;;6.62;53.99;98878.20;231168;1229;140726;-60
2022/02/22 17:39:47;;;;;;;25.80;7.80;;;;;;;6.52;53.75;98881.53;231138;1229;139057;-63
2022/02/22 17:44:50;;;;;;;17.20;7.10;;;;;;;6.47;53.80;98876.51;231206;1229;138920;-61
2022/02/22 17:49:53;;;;;;;17.50;7.30;;;;;;;6.41;53.58;98882.42;231183;1229;138812;-62
2022/02/22 17:54:58;;;;;;;19.50;7.40;;;;;;;6.32;53.53;98889.02;231277;1229;138745;-61
2022/02/22 18:00:03;;;;;;;15.50;5.90;;;;;;;6.29;53.32;98891.98;231348;1229;138959;-60
2022/02/22 18:05:16;;;;;;;194.00;117.80;;;;;;;6.36;53.84;98891.99;231320;1228;139691;-61
2022/02/22 18:10:21;;;;;;;23.70;10.40;;;;;;;6.56;53.74;98893.48;231188;1228;139477;-61
2022/02/22 18:15:24;;;;;;;18.20;6.60;;;;;;;6.49;52.64;98894.70;231185;1229;138909;-62
2022/02/22 18:20:29;;;;;;;21.50;10.80;;;;;;;6.38;52.78;98889.95;231206;1228;138898;-61
2022/02/22 18:25:32;;;;;;;15.90;5.90;;;;;;;6.30;52.61;98896.13;231182;1229;138937;-59
2022/02/22 18:30:35;;;;;;;13.40;5.60;;;;;;;6.20;52.33;98903.84;231291;1229;139797;-63
2022/02/22 18:35:38;;;;;;;16.80;6.10;;;;;;;6.14;52.69;98909.39;231258;1229;138703;-62
2022/02/22 18:40:41;;;;;;;13.70;4.30;;;;;;;6.10;52.63;98909.23;231251;1230;139206;-63
2022/02/22 18:45:44;;;;;;;13.50;4.50;;;;;;;6.06;52.76;98916.80;231246;1229;138783;-63
2022/02/22 18:50:47;;;;;;;9.60;4.20;;;;;;;5.96;52.71;98920.42;231132;1228;138821;-64
2022/02/22 18:55:52;;;;;;;;;;;;;;;5.92;53.33;98919.02;231150;1229;138711;-62
2022/02/22 19:00:56;;;;;;;18.40;5.40;;;;;;;5.97;53.20;98923.56;231317;1229;125838;-61
2022/02/22 19:06:17;;;;;;;12.00;4.40;;;;;;;5.89;53.29;98927.76;231224;1228;139283;-59
2022/02/22 19:11:21;;;;;;;11.50;4.10;;;;;;;5.87;53.32;98932.58;231257;1228;139953;-63
2022/02/22 19:16:25;;;;;;;12.80;4.20;;;;;;;5.78;53.26;98933.50;231237;1229;139309;-60
2022/02/22 19:21:29;;;;;;;13.50;4.30;;;;;;;5.70;53.41;98936.87;231245;1230;139430;-60
2022/02/22 19:26:33;;;;;;;14.70;4.50;;;;;;;5.67;53.58;98942.27;231252;1229;139417;-62
2022/02/22 19:31:36;;;;;;;12.90;4.70;;;;;;;5.60;53.58;98944.53;231214;1229;141176;-60
2022/02/22 19:36:39;;;;;;;16.30;4.40;;;;;;;5.55;53.76;98942.99;231402;1229;138743;-62
2022/02/22 19:41:42;;;;;;;137.90;86.50;;;;;;;5.50;54.08;98943.19;231253;1229;138342;-61
2022/02/22 19:46:45;;;;;;;16.50;6.90;;;;;;;5.63;54.63;98949.69;231244;1229;138738;-58
2022/02/22 19:51:48;;;;;;;14.20;4.80;;;;;;;5.60;54.17;98953.66;231102;1228;139360;-61
2022/02/22 19:56:51;;;;;;;15.50;4.20;;;;;;;5.48;54.21;98955.78;231232;1229;138679;-63
2022/02/22 20:01:55;;;;;;;15.30;4.50;;;;;;;5.35;54.15;98955.26;231229;1228;139704;-63
2022/02/22 20:06:58;;;;;;;17.60;4.50;;;;;;;5.29;54.44;98963.08;231364;1229;138985;-61
2022/02/22 20:12:02;;;;;;;13.50;4.50;;;;;;;5.30;54.75;98974.30;231240;1228;138993;-62
2022/02/22 20:17:08;;;;;;;16.20;4.30;;;;;;;5.29;54.87;98981.21;231102;1228;138670;-59
2022/02/22 20:22:12;;;;;;;14.80;4.90;;;;;;;5.28;54.85;98982.66;231199;1228;138410;-60
2022/02/22 20:27:16;;;;;;;18.80;5.10;;;;;;;5.24;55.02;98973.30;231277;1230;139419;-61
2022/02/22 20:32:19;;;;;;;13.90;4.60;;;;;;;5.21;55.23;98969.02;231270;1229;139022;-61
2022/02/22 20:37:22;;;;;;;15.90;5.90;;;;;;;5.16;55.21;98972.77;231202;1229;139446;-61
2022/02/22 20:42:26;;;;;;;20.60;5.30;;;;;;;5.11;55.39;98978.95;231260;1230;138489;-61
2022/02/22 20:47:29;;;;;;;17.90;5.60;;;;;;;5.12;55.50;98977.67;231286;1230;139010;-61
2022/02/22 20:52:32;;;;;;;15.70;5.20;;;;;;;5.13;55.67;98974.48;231262;1229;139668;-60
2022/02/22 20:57:35;;;;;;;16.80;5.30;;;;;;;5.09;55.60;98977.14;231263;1229;138907;-60
2022/02/22 21:02:39;;;;;;;16.50;6.70;;;;;;;5.05;55.78;98979.20;231269;1230;139018;-60
2022/02/22 21:07:42;;;;;;;22.60;6.30;;;;;;;5.07;55.88;98980.16;231297;1228;139008;-61
2022/02/22 21:12:45;;;;;;;15.60;6.10;;;;;;;5.10;55.97;98979.88;231439;1228;138812;-59
2022/02/22 21:17:49;;;;;;;19.90;7.10;;;;;;;5.10;55.93;98978.12;231250;1230;138746;-58
2022/02/22 21:22:52;;;;;;;19.80;6.50;;;;;;;5.12;55.97;98978.20;231234;1230;138641;-62
2022/02/22 21:27:55;;;;;;;20.20;7.60;;;;;;;5.14;55.93;98976.40;231253;1229;139327;-60
2022/02/22 21:32:58;;;;;;;19.80;7.40;;;;;;;5.15;56.03;98984.08;231285;1229;138583;-64
2022/02/22 21:38:02;;;;;;;19.60;6.80;;;;;;;5.18;55.95;98983.56;231236;1228;141593;-64
2022/02/22 21:43:09;;;;;;;20.60;7.50;;;;;;;5.18;56.11;98989.23;231407;1228;139366;-63
2022/02/22 21:48:12;;;;;;;21.10;7.30;;;;;;;5.19;56.21;98989.18;231259;1229;138945;-62
2022/02/22 21:53:16;;;;;;;18.30;7.30;;;;;;;5.22;56.19;98993.45;231295;1229;138456;-64
2022/02/22 21:58:19;;;;;;;23.60;7.80;;;;;;;5.26;56.39;98993.10;231217;1230;139179;-64
2022/02/22 22:03:22;;;;;;;22.70;7.10;;;;;;;5.30;56.15;98991.35;231300;1229;138639;-63
2022/02/22 22:08:25;;;;;;;17.90;6.90;;;;;;;5.32;56.14;98991.45;231237;1229;138576;-65
2022/02/22 22:13:28;;;;;;;23.10;8.00;;;;;;;5.34;56.07;98992.59;231341;1229;138868;-63
2022/02/22 22:18:32;;;;;;;26.20;8.10;;;;;;;5.38;56.06;98989.98;231151;1229;139845;-60
2022/02/22 22:23:35;;;;;;;25.00;8.30;;;;;;;5.37;56.13;98987.17;231338;1230;139319;-58
2022/02/22 22:28:38;;;;;;;23.00;8.20;;;;;;;5.35;56.23;98991.83;231226;1229;138459;-64
2022/02/22 22:33:41;;;;;;;26.70;9.60;;;;;;;5.35;56.15;98993.45;231238;1230;141006;-63
2022/02/22 22:38:44;;;;;;;21.00;9.00;;;;;;;5.39;56.24;98997.68;231240;1230;139799;-60
2022/02/22 22:43:50;;;;;;;30.80;10.10;;;;;;;5.47;56.27;98999.45;231301;1230;138823;-63
2022/02/22 22:48:55;;;;;;;28.90;10.50;;;;;;;5.47;55.98;99001.05;231340;1229;139967;-64
2022/02/22 22:53:58;;;;;;;27.90;10.00;;;;;;;5.40;56.08;98999.23;231101;1230;139086;-63
2022/02/22 22:59:01;;;;;;;22.40;8.90;;;;;;;5.34;55.97;98995.23;231171;1229;139619;-64
2022/02/22 23:04:04;;;;;;;30.40;11.00;;;;;;;5.29;56.04;98990.71;231233;1229;139498;-63
2022/02/22 23:14:30;;;;;;;25.70;10.50;;;;;;;5.26;56.12;98987.14;231274;1229;138813;-63
2022/02/22 23:19:34;;;;;;;25.60;9.70;;;;;;;5.21;56.04;98987.52;231258;1229;138660;-62
2022/02/22 23:24:37;;;;;;;26.90;11.30;;;;;;;5.19;55.93;98985.12;231291;1229;139210;-61
2022/02/22 23:29:42;;;;;;;26.50;9.50;;;;;;;5.19;56.06;98982.48;231264;1228;139609;-61